シドニー の空港の天気 - METARとTAF

シドニー国際空港 ( YSSY / SYD ) - オーストラリア ニューサウスウェールズ州、Mascot
飛行場実況気象(Metar)
観測時間02/24 01:00 AEDT (02/23 14:00 UTC)
風向・風速北 4m/s
視程10km以上
天気現象
少しの雲 雲底高度 460m
気温24℃
湿度74%
気圧1012hPa
METARYSSY 231400Z 35007KT 9999 FEW015 24/19 Q1012 NOSIG
過去の天気等 Google飛行場航空写真 Wunderground天気予報

過去48時間のMETAR

飛行場予報(TAF)
発表時間: 2/23 22:05 AEDT (2/23 11:05 UTC)
予報対象時間: 23日23時 AEDT ~ 25日5時 AEDT
風向・風速北北東 6m/s
視程10km以上
少しの雲 雲底高度 460m
24日3時 AEDT から
風向・風速北 4m/s
視程10km以上
少しの雲 雲底高度 610m
24日10時 AEDT から
風向・風速北 7m/s
視程10km以上
なし
24日15時 AEDT から
風向・風速北北東 9m/s 瞬間風速 14m/s
視程10km以上
天気現象弱いしゅう雨
全天の4割程度の雲 雲底高度 1,370m
24日20時 AEDT から
風向・風速北 6m/s
視程10km以上
少しの雲 雲底高度 370m
TAF YSSY 231105Z 2312/2418 02012KT 9999 FEW015
FM231600 35008KT 9999 FEW020
FM232300 01014KT CAVOK
FM240400 03018G28KT 9999 -SHRA SCT045
FM240900 01012KT 9999 FEW012